Aviation Digital Data Service (ADDS)

Output produced by METARs form (1031 UTC 19 January 2019)
found at http://www.aviationweather.gov/metar/data/
 
KMPV 191006Z AUTO 33006KT 10SM FEW015 M14/M17 A3023 RMK AO2 T11441167
KMPV 191019Z 1910/2006 36005KT P6SM BKN110 
     FM192000 VRB03KT P6SM VCSH OVC045 
     FM192300 VRB03KT 1 1/2SM -SN BR OVC027
       
KDDH 190954Z AUTO 19004KT 10SM OVC040 M06/M09 A3018 RMK AO2 SLP230 T10561089
KBTV 190954Z 02009KT 10SM CLR M14/M21 A3032 RMK AO2 SLP274 T11391206
KBTV 190531Z 1906/2006 35011KT P6SM BKN040 
     TEMPO 1906/1907 4SM -SN BKN025 
     FM190900 36008KT P6SM BKN150 
     FM191300 36006KT P6SM OVC100 
     FM192000 36005KT P6SM VCSH OVC045 
     FM192200 36005KT P6SM -SHSN OVC028 
     FM200000 VRB04KT 1 1/2SM -SN BR OVC022
       
KFSO 191015Z AUTO 36008G14KT 10SM CLR M18/M23 A3037 RMK AO2 T11821235
KCDA 191015Z AUTO 32007KT 10SM CLR M16/M20 A3022 RMK AO2 T11571200
KMVL 190954Z AUTO 03006KT 10SM M16/M19 A3027 RMK AO2 SLP265 T11561194 $
KEFK 191015Z AUTO 35009KT 10SM CLR M19/M23 A3027 RMK AO2 T11911226
KRUT 190956Z AUTO 36008KT 9SM -SN FEW014 BKN028 OVC038 M10/M12 A3022 RMK AO2 SNB05 SLP255 P0000 T11001122 FZRANO $
KRUT 190955Z 1910/2006 36006KT P6SM BKN028 
     FM191100 VRB04KT P6SM BKN090 
     FM192000 VRB03KT P6SM -SHSN OVC035 
     FM192200 VRB03KT 1 1/2SM -SN BR OVC027 
     FM200300 09005KT 1 1/2SM -SN BR OVC020
       
KVSF 191011Z AUTO 33004KT 10SM SCT024 OVC041 M06/M11 A3021 RMK AO2 T10561106